createdAt,value
2017-12-26T00:00:49.761Z,65.70
2017-12-26T00:03:18.125Z,66.06
2017-12-26T00:05:46.435Z,65.18
2017-12-26T00:08:14.780Z,66.00
2017-12-26T00:10:43.140Z,66.31
2017-12-26T00:13:12.260Z,66.14
2017-12-26T00:15:40.818Z,66.18
2017-12-26T00:18:09.487Z,65.79
2017-12-26T00:20:41.482Z,65.36
2017-12-26T00:23:10.042Z,66.29
2017-12-26T00:25:38.758Z,66.75
2017-12-26T00:28:07.150Z,66.89
2017-12-26T00:30:35.525Z,66.79
2017-12-26T00:33:03.885Z,66.95
2017-12-26T00:35:32.204Z,67.02
2017-12-26T00:38:01.358Z,67.01
2017-12-26T00:40:29.777Z,66.92
2017-12-26T00:42:58.151Z,66.16
2017-12-26T00:45:27.565Z,67.15
2017-12-26T00:47:56.666Z,68.01
2017-12-26T00:50:25.006Z,67.72
2017-12-26T00:52:53.362Z,67.83
2017-12-26T00:55:21.718Z,68.78
2017-12-26T00:57:50.073Z,68.21
2017-12-26T01:00:19.195Z,68.42
2017-12-26T01:02:47.546Z,68.35
2017-12-26T01:05:15.892Z,67.69
2017-12-26T01:07:44.450Z,67.70
2017-12-26T01:10:12.805Z,67.86
2017-12-26T01:12:41.923Z,67.99
2017-12-26T01:15:10.289Z,67.72
2017-12-26T01:17:38.642Z,68.28
2017-12-26T01:20:06.971Z,68.32
2017-12-26T01:22:35.319Z,67.02
2017-12-26T01:25:03.686Z,67.58
2017-12-26T01:27:32.000Z,67.36
2017-12-26T01:30:00.532Z,67.45
2017-12-26T01:32:29.655Z,67.18
2017-12-26T01:34:58.042Z,67.91
2017-12-26T01:37:26.410Z,68.70
2017-12-26T01:39:54.790Z,68.94
2017-12-26T01:42:23.167Z,68.38
2017-12-26T01:44:51.584Z,67.66
2017-12-26T01:47:19.918Z,67.97
2017-12-26T01:49:49.089Z,68.20
2017-12-26T01:52:17.815Z,68.61
2017-12-26T01:54:46.154Z,68.31
2017-12-26T01:57:14.496Z,68.25
2017-12-26T01:59:42.827Z,68.20
2017-12-26T02:02:12.887Z,68.69
2017-12-26T02:04:41.273Z,68.36
2017-12-26T02:07:09.683Z,68.06
2017-12-26T02:09:38.083Z,68.53
2017-12-26T02:12:07.185Z,68.19
2017-12-26T02:14:36.655Z,68.19
2017-12-26T02:17:05.023Z,68.68
2017-12-26T02:19:33.534Z,68.13
2017-12-26T02:22:01.930Z,68.27
2017-12-26T02:24:31.108Z,68.79
2017-12-26T02:26:59.496Z,68.40
2017-12-26T02:29:27.974Z,67.69
2017-12-26T02:31:56.396Z,68.34
2017-12-26T02:34:25.049Z,68.59
2017-12-26T02:36:54.245Z,68.70
2017-12-26T02:39:22.630Z,68.64
2017-12-26T02:41:51.865Z,69.00
2017-12-26T02:44:21.050Z,69.33
2017-12-26T02:46:49.578Z,68.76
2017-12-26T02:49:18.076Z,68.87
2017-12-26T02:51:46.440Z,69.77
2017-12-26T02:54:14.843Z,69.77
2017-12-26T02:56:43.240Z,69.58
2017-12-26T02:59:12.005Z,69.65
2017-12-26T03:01:40.430Z,69.45
2017-12-26T03:04:08.979Z,69.09
2017-12-26T03:06:38.174Z,69.41
2017-12-26T03:09:07.386Z,68.78
2017-12-26T03:11:36.637Z,68.41
2017-12-26T03:14:05.071Z,68.61
2017-12-26T03:16:34.352Z,68.17
2017-12-26T03:19:03.627Z,68.71
2017-12-26T03:21:32.126Z,69.08
2017-12-26T03:24:00.524Z,68.46
2017-12-26T03:26:28.977Z,69.11
2017-12-26T03:28:57.481Z,68.71
2017-12-26T03:31:25.955Z,68.25
2017-12-26T03:33:54.349Z,69.10
2017-12-26T03:36:23.529Z,69.15
2017-12-26T03:38:52.041Z,69.36
2017-12-26T03:41:20.504Z,68.32
2017-12-26T03:43:49.190Z,68.40
2017-12-26T03:46:17.584Z,68.08
2017-12-26T03:48:45.988Z,69.79
2017-12-26T03:51:14.509Z,69.68
2017-12-26T03:53:43.022Z,70.51
2017-12-26T03:56:11.538Z,69.88
2017-12-26T03:58:39.965Z,69.75
2017-12-26T04:01:08.466Z,70.00
2017-12-26T04:03:37.735Z,70.39
2017-12-26T04:06:06.520Z,70.12
2017-12-26T04:08:35.037Z,70.50
2017-12-26T04:11:04.222Z,70.57
2017-12-26T04:13:32.712Z,70.66
2017-12-26T04:16:02.012Z,71.37
2017-12-26T04:18:30.407Z,71.40
2017-12-26T04:20:59.650Z,71.18
2017-12-26T04:23:28.298Z,71.74
2017-12-26T04:25:56.676Z,72.13
2017-12-26T04:28:26.417Z,71.93
2017-12-26T04:30:54.850Z,71.31
2017-12-26T04:33:23.330Z,71.66
2017-12-26T04:35:51.812Z,72.11
2017-12-26T04:38:21.091Z,71.32
2017-12-26T04:40:49.534Z,70.75
2017-12-26T04:43:18.046Z,71.38
2017-12-26T04:45:46.560Z,71.73
2017-12-26T04:48:14.977Z,71.93
2017-12-26T04:50:43.522Z,72.02
2017-12-26T04:53:11.892Z,72.17
2017-12-26T04:55:40.332Z,73.16
2017-12-26T04:58:08.729Z,73.07
2017-12-26T05:00:37.157Z,72.92
2017-12-26T05:03:06.369Z,72.64
2017-12-26T05:05:35.648Z,73.19
2017-12-26T05:11:01.336Z,73.34
2017-12-26T05:13:29.741Z,73.62
2017-12-26T05:15:58.145Z,72.79
2017-12-26T05:18:26.567Z,73.06
2017-12-26T05:20:55.004Z,73.13
2017-12-26T05:23:23.412Z,73.29
2017-12-26T05:26:11.466Z,73.34
2017-12-26T05:28:40.589Z,74.22
2017-12-26T05:31:08.966Z,74.26
2017-12-26T05:33:37.492Z,74.20
2017-12-26T05:36:05.837Z,73.91
2017-12-26T05:38:34.366Z,73.95
2017-12-26T05:41:02.766Z,73.72
2017-12-26T05:43:31.317Z,74.10
2017-12-26T05:46:00.426Z,74.20
2017-12-26T05:48:28.915Z,73.87
2017-12-26T05:50:58.016Z,74.84
2017-12-26T05:53:26.383Z,74.42
2017-12-26T05:55:54.818Z,74.89
2017-12-26T06:01:39.125Z,75.08
2017-12-26T06:04:07.465Z,75.55
2017-12-26T06:06:35.844Z,75.43
2017-12-26T06:09:04.614Z,75.22
2017-12-26T06:11:32.967Z,75.84
2017-12-26T06:14:01.280Z,75.85
2017-12-26T06:16:29.625Z,75.67
2017-12-26T06:18:58.727Z,75.88
2017-12-26T06:21:27.810Z,76.03
2017-12-26T06:23:56.927Z,75.97
2017-12-26T06:26:25.282Z,76.33
2017-12-26T06:28:53.616Z,76.57
2017-12-26T06:31:22.564Z,76.57
2017-12-26T06:33:51.723Z,76.63
2017-12-26T06:36:20.072Z,76.44
2017-12-26T06:38:48.490Z,76.01
2017-12-26T06:41:16.858Z,75.97
2017-12-26T06:43:45.284Z,75.59
2017-12-26T06:46:13.664Z,75.59
2017-12-26T06:48:42.804Z,75.28
2017-12-26T06:51:11.200Z,75.22
2017-12-26T06:53:39.815Z,76.08
2017-12-26T06:56:08.912Z,75.60
2017-12-26T06:58:38.032Z,75.01
2017-12-26T07:01:06.423Z,74.54
2017-12-26T07:03:34.928Z,74.46
2017-12-26T07:06:03.238Z,74.20
2017-12-26T07:08:31.599Z,74.14
2017-12-26T07:10:59.982Z,73.58
2017-12-26T07:13:28.369Z,74.59
2017-12-26T07:15:57.059Z,74.15
2017-12-26T07:18:26.198Z,74.15
2017-12-26T07:21:00.111Z,74.24
2017-12-26T07:23:28.560Z,73.80
2017-12-26T07:25:57.033Z,73.98
2017-12-26T07:28:26.219Z,73.86
2017-12-26T07:30:54.606Z,73.33
2017-12-26T07:33:22.985Z,73.55
2017-12-26T07:35:51.567Z,73.45
2017-12-26T07:38:19.985Z,73.87
2017-12-26T07:40:48.325Z,73.53
2017-12-26T07:43:16.707Z,73.32
2017-12-26T07:45:45.242Z,73.31
2017-12-26T07:48:13.789Z,72.71
2017-12-26T07:50:43.004Z,72.70
2017-12-26T07:53:11.385Z,73.28
2017-12-26T07:55:39.836Z,72.53
2017-12-26T07:58:08.518Z,72.36
2017-12-26T08:00:36.975Z,72.05
2017-12-26T08:03:05.480Z,72.20
2017-12-26T08:05:34.092Z,71.05
2017-12-26T08:08:02.550Z,69.38
2017-12-26T08:10:32.160Z,68.47
2017-12-26T08:13:00.712Z,66.60
2017-12-26T08:15:29.128Z,65.27
2017-12-26T08:17:57.690Z,64.52
2017-12-26T08:20:26.513Z,63.90
2017-12-26T08:22:55.906Z,63.84
2017-12-26T08:25:25.193Z,66.43
2017-12-26T08:27:53.783Z,67.57
2017-12-26T08:30:22.258Z,68.15
2017-12-26T08:32:50.646Z,68.91
2017-12-26T08:35:19.875Z,68.96
2017-12-26T08:37:48.406Z,68.96
2017-12-26T08:40:16.904Z,69.23
2017-12-26T08:42:45.527Z,69.62
2017-12-26T08:45:13.969Z,68.66
2017-12-26T08:47:42.580Z,69.39
2017-12-26T08:50:11.313Z,69.44
2017-12-26T08:52:40.269Z,69.94
2017-12-26T08:55:08.739Z,69.87
2017-12-26T08:57:37.162Z,70.06
2017-12-26T09:00:05.710Z,70.01
2017-12-26T09:02:34.227Z,70.19
2017-12-26T09:05:03.198Z,69.36
2017-12-26T09:07:31.743Z,69.03
2017-12-26T09:10:00.976Z,68.85
2017-12-26T09:12:29.494Z,69.21
2017-12-26T09:14:58.023Z,68.70
2017-12-26T09:17:27.255Z,69.01
2017-12-26T09:19:56.025Z,68.35
2017-12-26T09:22:24.419Z,68.44
2017-12-26T09:24:52.790Z,67.86
2017-12-26T09:27:21.852Z,68.28
2017-12-26T09:29:50.277Z,69.11
2017-12-26T09:32:18.720Z,67.82
2017-12-26T09:34:47.271Z,68.06
2017-12-26T09:37:15.826Z,67.06
2017-12-26T09:39:44.215Z,65.75
2017-12-26T09:42:12.672Z,63.83
2017-12-26T09:44:41.117Z,60.09
2017-12-26T09:47:09.504Z,60.78
2017-12-26T09:49:38.901Z,63.43
2017-12-26T09:52:07.321Z,65.72
2017-12-26T09:54:35.763Z,67.45
2017-12-26T09:57:04.247Z,68.54
2017-12-26T09:59:32.590Z,69.74
2017-12-26T10:02:00.971Z,70.27
2017-12-26T10:04:29.352Z,70.74
2017-12-26T10:06:57.708Z,70.84
2017-12-26T10:09:26.229Z,69.99
2017-12-26T10:11:54.866Z,70.20
2017-12-26T10:14:23.207Z,71.92
2017-12-26T10:16:51.688Z,72.36
2017-12-26T10:19:20.272Z,71.80
2017-12-26T10:21:48.690Z,72.30
2017-12-26T10:24:17.105Z,73.32
2017-12-26T10:26:45.528Z,74.17
2017-12-26T10:29:14.739Z,73.31
2017-12-26T10:31:43.137Z,74.33
2017-12-26T10:34:11.817Z,74.41
2017-12-26T10:36:40.181Z,75.12
2017-12-26T10:39:08.704Z,74.39
2017-12-26T10:41:37.322Z,75.36
2017-12-26T10:44:05.712Z,74.61
2017-12-26T10:46:34.194Z,74.91
2017-12-26T10:49:02.672Z,74.79
2017-12-26T10:51:31.055Z,75.04
2017-12-26T10:53:59.503Z,75.43
2017-12-26T10:56:28.491Z,76.96
2017-12-26T10:58:56.903Z,77.65
2017-12-26T11:01:25.287Z,77.15
2017-12-26T11:03:53.765Z,77.59
2017-12-26T11:06:22.475Z,75.49
2017-12-26T11:08:50.875Z,78.01
2017-12-26T11:11:19.401Z,79.02
2017-12-26T11:13:47.810Z,79.43
2017-12-26T11:16:16.953Z,79.72
2017-12-26T11:18:45.599Z,79.36
2017-12-26T11:21:13.960Z,79.39
2017-12-26T11:23:42.346Z,78.18
2017-12-26T11:26:10.794Z,78.27
2017-12-26T11:28:39.410Z,77.88
2017-12-26T11:31:07.892Z,76.84
2017-12-26T11:33:37.186Z,77.58
2017-12-26T11:36:05.596Z,76.82
2017-12-26T11:38:34.150Z,77.73
2017-12-26T11:41:02.703Z,76.38
2017-12-26T11:43:31.116Z,76.84
2017-12-26T11:46:00.238Z,76.92
2017-12-26T11:48:28.685Z,76.25
2017-12-26T11:50:57.179Z,76.77
2017-12-26T11:53:25.666Z,76.07
2017-12-26T11:55:54.075Z,75.71
2017-12-26T11:58:22.423Z,75.97
2017-12-26T12:00:51.589Z,74.77
2017-12-26T12:03:20.300Z,76.73
2017-12-26T12:05:48.701Z,75.63
2017-12-26T12:08:17.923Z,75.22
2017-12-26T12:10:46.333Z,75.87
2017-12-26T12:13:14.703Z,74.89
2017-12-26T12:15:43.205Z,74.27
2017-12-26T12:18:11.599Z,74.83
2017-12-26T12:20:40.005Z,73.72
2017-12-26T12:23:09.176Z,73.74
2017-12-26T12:25:38.123Z,73.48
2017-12-26T12:28:06.627Z,73.72
2017-12-26T12:30:35.121Z,73.31
2017-12-26T12:33:03.647Z,73.19
2017-12-26T12:35:32.103Z,73.94
2017-12-26T12:38:00.435Z,74.46
2017-12-26T12:40:28.786Z,74.54
2017-12-26T12:42:57.095Z,73.94
2017-12-26T12:45:25.448Z,73.75
2017-12-26T12:47:53.918Z,74.33
2017-12-26T12:50:23.042Z,74.05
2017-12-26T12:52:51.480Z,74.76
2017-12-26T12:55:20.687Z,73.33
2017-12-26T12:57:49.017Z,73.80
2017-12-26T13:00:17.348Z,74.25
2017-12-26T13:02:46.551Z,73.51
2017-12-26T13:05:15.655Z,74.27
2017-12-26T13:07:44.961Z,74.78
2017-12-26T13:10:13.627Z,74.22
2017-12-26T13:12:42.715Z,73.78
2017-12-26T13:15:11.047Z,74.75
2017-12-26T13:17:39.412Z,74.10
2017-12-26T13:20:07.744Z,74.69
2017-12-26T13:22:36.123Z,75.10
2017-12-26T13:25:04.494Z,74.16
2017-12-26T13:27:32.807Z,71.88
2017-12-26T13:30:01.140Z,69.04
2017-12-26T13:32:29.814Z,68.78
2017-12-26T13:34:58.175Z,69.70
2017-12-26T13:37:26.531Z,67.76
2017-12-26T13:39:54.979Z,67.53
2017-12-26T13:42:23.330Z,67.16
2017-12-26T13:44:51.691Z,66.04
2017-12-26T13:47:20.092Z,66.17
2017-12-26T13:49:48.497Z,66.57
2017-12-26T13:52:16.886Z,66.50
2017-12-26T13:54:46.615Z,65.71
2017-12-26T13:57:14.953Z,66.64
2017-12-26T13:59:43.305Z,66.55
2017-12-26T14:02:11.686Z,67.21
2017-12-26T14:04:40.024Z,67.15
2017-12-26T14:07:17.220Z,67.28
2017-12-26T14:09:46.726Z,64.16
2017-12-26T14:12:15.092Z,61.25
2017-12-26T14:14:43.739Z,60.40
2017-12-26T14:17:12.092Z,60.90
2017-12-26T14:19:40.414Z,62.33
2017-12-26T14:22:08.768Z,64.15
2017-12-26T14:24:37.094Z,64.87
2017-12-26T14:27:05.423Z,64.84
2017-12-26T14:29:33.753Z,65.22
2017-12-26T14:32:02.879Z,65.85
2017-12-26T14:34:31.191Z,65.71
2017-12-26T14:37:16.765Z,66.52
2017-12-26T14:39:45.110Z,66.32
2017-12-26T14:42:13.482Z,66.57
2017-12-26T14:44:41.836Z,67.06
2017-12-26T14:47:10.921Z,66.54
2017-12-26T14:49:39.283Z,66.79
2017-12-26T14:52:07.668Z,66.68
2017-12-26T14:54:36.084Z,67.14
2017-12-26T14:57:04.421Z,67.45
2017-12-26T14:59:33.092Z,67.35
2017-12-26T15:02:01.437Z,67.05
2017-12-26T15:04:29.791Z,67.20
2017-12-26T15:06:58.158Z,67.82
2017-12-26T15:09:26.470Z,68.47
2017-12-26T15:11:55.699Z,68.16
2017-12-26T15:14:24.563Z,67.78
2017-12-26T15:16:52.915Z,68.06
2017-12-26T15:19:21.413Z,67.87
2017-12-26T15:21:49.853Z,67.89
2017-12-26T15:24:18.232Z,68.10
2017-12-26T15:26:46.621Z,67.90
2017-12-26T15:29:14.969Z,68.14
2017-12-26T15:31:43.316Z,67.88
2017-12-26T15:34:11.655Z,67.30
2017-12-26T15:36:40.034Z,67.45
2017-12-26T15:39:08.418Z,68.22
2017-12-26T15:41:36.771Z,67.00
2017-12-26T15:44:05.415Z,66.37
2017-12-26T15:46:34.522Z,68.70
2017-12-26T15:49:03.626Z,69.55
2017-12-26T15:51:32.942Z,68.94
2017-12-26T15:54:01.325Z,69.33
2017-12-26T15:56:29.671Z,70.44
2017-12-26T15:58:58.011Z,69.77
2017-12-26T16:01:26.334Z,69.39
2017-12-26T16:03:56.385Z,69.54
2017-12-26T16:06:24.980Z,70.18
2017-12-26T16:08:53.314Z,70.02
2017-12-26T16:11:21.656Z,70.35
2017-12-26T16:13:49.999Z,68.98
2017-12-26T16:16:18.388Z,69.83
2017-12-26T16:18:46.724Z,69.59
2017-12-26T16:21:15.873Z,69.54
2017-12-26T16:23:44.196Z,68.91
2017-12-26T16:26:13.269Z,68.61
2017-12-26T16:28:41.709Z,67.83
2017-12-26T16:31:10.067Z,67.88
2017-12-26T16:33:38.368Z,68.44
2017-12-26T16:36:06.750Z,67.33
2017-12-26T16:38:35.081Z,67.24
2017-12-26T16:41:04.174Z,67.91
2017-12-26T16:43:33.322Z,67.34
2017-12-26T16:46:01.640Z,67.47
2017-12-26T16:48:29.980Z,67.52
2017-12-26T16:50:58.875Z,67.29
2017-12-26T16:53:27.233Z,66.60
2017-12-26T16:55:55.577Z,66.68
2017-12-26T16:58:23.940Z,66.54
2017-12-26T17:00:52.258Z,66.95
2017-12-26T17:03:20.601Z,66.90
2017-12-26T17:05:48.922Z,67.04
2017-12-26T17:08:17.254Z,67.15
2017-12-26T17:10:45.592Z,67.39
2017-12-26T17:13:14.318Z,67.71
2017-12-26T17:15:42.661Z,67.84
2017-12-26T17:21:09.088Z,67.27
2017-12-26T17:23:37.421Z,67.71
2017-12-26T17:26:05.747Z,66.73
2017-12-26T17:28:34.461Z,67.47
2017-12-26T17:31:02.836Z,67.49
2017-12-26T17:33:31.242Z,66.64
2017-12-26T17:35:59.832Z,67.78
2017-12-26T17:38:28.151Z,68.15
2017-12-26T17:40:56.504Z,67.38
2017-12-26T17:43:25.893Z,66.94
2017-12-26T17:45:54.279Z,67.41
2017-12-26T17:48:22.764Z,67.46
2017-12-26T17:50:51.743Z,66.76
2017-12-26T17:53:20.063Z,66.65
2017-12-26T17:55:48.412Z,67.03
2017-12-26T17:58:17.008Z,67.17
2017-12-26T18:00:46.115Z,66.80
2017-12-26T18:03:15.192Z,66.40
2017-12-26T18:05:44.006Z,66.24
2017-12-26T18:08:13.045Z,66.35
2017-12-26T18:10:42.461Z,66.28
2017-12-26T18:13:11.617Z,65.81
2017-12-26T18:15:39.987Z,66.12
2017-12-26T18:18:08.340Z,66.95
2017-12-26T18:20:37.739Z,66.80
2017-12-26T18:23:06.139Z,66.73
2017-12-26T18:25:35.589Z,66.77
2017-12-26T18:28:04.272Z,66.35
2017-12-26T18:30:32.684Z,67.67
2017-12-26T18:33:01.042Z,67.69
2017-12-26T18:35:29.711Z,67.71
2017-12-26T18:37:58.081Z,67.54
2017-12-26T18:40:26.455Z,66.83
2017-12-26T18:42:55.114Z,67.89
2017-12-26T18:45:23.857Z,67.33
2017-12-26T18:47:52.941Z,67.27
2017-12-26T18:50:21.738Z,67.86
2017-12-26T18:52:50.105Z,67.82
2017-12-26T18:55:18.496Z,67.78
2017-12-26T18:57:47.276Z,67.92
2017-12-26T19:00:15.756Z,68.71
2017-12-26T19:02:59.290Z,67.92
2017-12-26T19:05:27.611Z,69.06
2017-12-26T19:07:56.715Z,68.85
2017-12-26T19:10:26.137Z,68.92
2017-12-26T19:13:06.964Z,68.96
2017-12-26T19:15:35.819Z,69.14
2017-12-26T19:18:04.199Z,69.87
2017-12-26T19:20:32.540Z,70.12
2017-12-26T19:23:01.372Z,70.36
2017-12-26T19:25:29.715Z,70.30
2017-12-26T19:27:58.841Z,70.10
2017-12-26T19:30:27.465Z,70.29
2017-12-26T19:32:55.806Z,70.47
2017-12-26T19:35:24.179Z,69.97
2017-12-26T19:37:53.296Z,69.90
2017-12-26T19:40:21.695Z,70.09
2017-12-26T19:42:50.053Z,70.17
2017-12-26T19:45:18.690Z,70.41
2017-12-26T19:47:47.024Z,70.49
2017-12-26T19:50:15.445Z,69.75
2017-12-26T19:52:44.061Z,70.29
2017-12-26T19:55:12.427Z,70.53
2017-12-26T19:57:41.562Z,70.13
2017-12-26T20:00:10.539Z,70.30
2017-12-26T20:02:38.899Z,70.44
2017-12-26T20:05:07.273Z,70.84
2017-12-26T20:07:35.677Z,70.17
2017-12-26T20:10:04.071Z,70.10
2017-12-26T20:12:32.368Z,69.90
2017-12-26T20:15:01.941Z,69.37
2017-12-26T20:17:30.296Z,68.99
2017-12-26T20:19:59.386Z,68.99
2017-12-26T20:22:27.831Z,69.13
2017-12-26T20:24:56.220Z,69.26
2017-12-26T20:27:24.548Z,69.48
2017-12-26T20:30:00.444Z,69.58
2017-12-26T20:32:28.812Z,69.68
2017-12-26T20:34:57.142Z,70.15
2017-12-26T20:37:25.512Z,70.29
2017-12-26T20:39:53.842Z,70.17
2017-12-26T20:42:22.198Z,71.18
2017-12-26T20:44:50.653Z,70.92
2017-12-26T20:47:19.009Z,71.35
2017-12-26T20:49:47.515Z,71.41
2017-12-26T20:52:16.716Z,71.17
2017-12-26T20:54:45.038Z,71.36
2017-12-26T20:57:13.437Z,71.57
2017-12-26T20:59:41.841Z,71.54
2017-12-26T21:02:10.248Z,71.48
2017-12-26T21:04:38.662Z,71.18
2017-12-26T21:07:07.466Z,70.98
2017-12-26T21:09:35.783Z,71.32
2017-12-26T21:12:04.138Z,72.58
2017-12-26T21:14:32.543Z,72.07
2017-12-26T21:17:01.656Z,72.18
2017-12-26T21:19:30.026Z,72.25
2017-12-26T21:21:58.443Z,71.64
2017-12-26T21:24:26.797Z,71.28
2017-12-26T21:26:55.475Z,72.16
2017-12-26T21:29:24.398Z,72.22
2017-12-26T21:31:52.733Z,71.70
2017-12-26T21:34:21.843Z,72.71
2017-12-26T21:36:50.214Z,72.34
2017-12-26T21:39:19.311Z,72.49
2017-12-26T21:41:49.270Z,72.27
2017-12-26T21:44:17.630Z,71.88
2017-12-26T21:46:46.072Z,72.19
2017-12-26T21:49:14.460Z,72.11
2017-12-26T21:51:43.767Z,72.40
2017-12-26T21:54:12.165Z,73.24
2017-12-26T21:56:40.577Z,73.34
2017-12-26T21:59:09.027Z,73.73
2017-12-26T22:01:37.365Z,73.46
2017-12-26T22:04:05.678Z,73.69
2017-12-26T22:06:34.215Z,73.38
2017-12-26T22:09:02.514Z,73.00
2017-12-26T22:11:30.864Z,72.60
2017-12-26T22:13:59.294Z,72.85
2017-12-26T22:16:27.646Z,73.60
2017-12-26T22:18:55.984Z,73.10
2017-12-26T22:21:24.398Z,72.61
2017-12-26T22:23:52.757Z,72.50
2017-12-26T22:26:21.098Z,73.20
2017-12-26T22:28:49.464Z,73.33
2017-12-26T22:31:17.820Z,72.77
2017-12-26T22:33:46.950Z,72.66
2017-12-26T22:36:15.406Z,72.87
2017-12-26T22:38:43.799Z,72.86
2017-12-26T22:41:12.125Z,72.67
2017-12-26T22:43:40.494Z,72.97
2017-12-26T22:46:08.845Z,72.92
2017-12-26T22:48:37.204Z,72.74
2017-12-26T22:51:05.551Z,72.57
2017-12-26T22:53:33.864Z,72.16
2017-12-26T22:56:04.845Z,72.36
2017-12-26T22:58:33.347Z,73.33
2017-12-26T23:01:01.796Z,72.94
2017-12-26T23:03:30.114Z,72.60
2017-12-26T23:05:58.482Z,72.51
2017-12-26T23:08:26.829Z,72.58
2017-12-26T23:10:55.186Z,73.03
2017-12-26T23:13:23.894Z,72.86
2017-12-26T23:15:57.699Z,72.87
2017-12-26T23:18:26.205Z,72.93
2017-12-26T23:20:59.477Z,72.77
2017-12-26T23:23:33.419Z,72.75
2017-12-26T23:26:07.162Z,72.25
2017-12-26T23:28:41.049Z,72.15
2017-12-26T23:31:14.855Z,72.22
2017-12-26T23:33:48.838Z,72.55
2017-12-26T23:36:22.565Z,72.93
2017-12-26T23:38:56.310Z,72.96
2017-12-26T23:41:30.836Z,73.14
2017-12-26T23:47:10.254Z,73.20
2017-12-26T23:49:44.129Z,73.51
2017-12-26T23:52:18.064Z,73.90
2017-12-26T23:54:52.013Z,73.82
2017-12-26T23:57:26.538Z,74.28
